Naplate, Illinois
Current Conditions -  °F | °C
As of 8:55 PM on Sunday 23 Nov 2014 (Local Time) from KVYS Reporting Station
Drizzle Drizzle  
Wind Chill: 47°   Ceiling: 300
Heat Index: 49°   Visibility: 2.5mi
Dew Point: 48°   Wind: 6mph
Humidity: 97%   Direction: 160°SSE
Pressure: 29.21"   Gusts: NA
Location:  41.4349°N, 88.8687°W
Report Text: KVYS 240255Z AUTO 16005KT 2 1/2SM DZ OVC003 10/09 A2921 RMK AO2 P0004 60018 T00960091
Loading
Personal Weather Stations






























Interactive Weather Map New forecast layout! Learn more

10-Day Weather Forecast

Advertisements
Track Severe Weather on mobile